sensor_id;sensor_type;location;lat;lon;timestamp;P1;durP1;ratioP1;P2;durP2;ratioP2
57465;SDS011;61805;44.776;20.472;2023-01-15T00:00:59;329.75;;;42.63;;
57465;SDS011;61805;44.776;20.472;2023-01-15T00:03:26;325.05;;;38.10;;
57465;SDS011;61805;44.776;20.472;2023-01-15T00:05:52;478.17;;;41.65;;
57465;SDS011;61805;44.776;20.472;2023-01-15T00:08:18;311.35;;;37.83;;
57465;SDS011;61805;44.776;20.472;2023-01-15T00:10:44;399.50;;;42.33;;
57465;SDS011;61805;44.776;20.472;2023-01-15T00:13:10;313.83;;;40.25;;
57465;SDS011;61805;44.776;20.472;2023-01-15T00:15:36;355.70;;;43.17;;
57465;SDS011;61805;44.776;20.472;2023-01-15T00:18:02;279.58;;;44.75;;
57465;SDS011;61805;44.776;20.472;2023-01-15T00:20:28;288.80;;;45.45;;
57465;SDS011;61805;44.776;20.472;2023-01-15T00:22:54;463.83;;;48.53;;
57465;SDS011;61805;44.776;20.472;2023-01-15T00:25:20;235.77;;;44.30;;
57465;SDS011;61805;44.776;20.472;2023-01-15T00:28:04;220.27;;;45.00;;
57465;SDS011;61805;44.776;20.472;2023-01-15T00:30:31;148.45;;;44.33;;
57465;SDS011;61805;44.776;20.472;2023-01-15T00:32:57;299.65;;;45.10;;
57465;SDS011;61805;44.776;20.472;2023-01-15T00:35:23;253.20;;;45.15;;
57465;SDS011;61805;44.776;20.472;2023-01-15T00:37:51;173.90;;;42.40;;
57465;SDS011;61805;44.776;20.472;2023-01-15T00:40:17;231.43;;;41.28;;
57465;SDS011;61805;44.776;20.472;2023-01-15T00:42:45;117.43;;;39.17;;
57465;SDS011;61805;44.776;20.472;2023-01-15T00:45:11;199.38;;;42.58;;
57465;SDS011;61805;44.776;20.472;2023-01-15T00:47:38;178.27;;;40.58;;
57465;SDS011;61805;44.776;20.472;2023-01-15T00:50:06;208.07;;;43.17;;
57465;SDS011;61805;44.776;20.472;2023-01-15T00:52:33;215.13;;;40.67;;
57465;SDS011;61805;44.776;20.472;2023-01-15T00:55:00;176.57;;;39.80;;
57465;SDS011;61805;44.776;20.472;2023-01-15T00:57:27;206.45;;;38.97;;
57465;SDS011;61805;44.776;20.472;2023-01-15T00:59:53;146.18;;;37.85;;
57465;SDS011;61805;44.776;20.472;2023-01-15T01:02:19;144.95;;;38.20;;
57465;SDS011;61805;44.776;20.472;2023-01-15T01:04:45;207.75;;;39.08;;
57465;SDS011;61805;44.776;20.472;2023-01-15T01:07:11;162.23;;;36.72;;
57465;SDS011;61805;44.776;20.472;2023-01-15T01:09:37;215.93;;;38.70;;
57465;SDS011;61805;44.776;20.472;2023-01-15T01:12:03;255.52;;;39.83;;
57465;SDS011;61805;44.776;20.472;2023-01-15T01:14:29;273.55;;;37.55;;
57465;SDS011;61805;44.776;20.472;2023-01-15T01:16:55;331.98;;;39.88;;
57465;SDS011;61805;44.776;20.472;2023-01-15T01:19:21;289.20;;;39.47;;
57465;SDS011;61805;44.776;20.472;2023-01-15T01:21:48;267.13;;;37.58;;
57465;SDS011;61805;44.776;20.472;2023-01-15T01:24:16;363.65;;;41.80;;
57465;SDS011;61805;44.776;20.472;2023-01-15T01:26:44;305.35;;;39.20;;
57465;SDS011;61805;44.776;20.472;2023-01-15T01:29:11;360.88;;;40.88;;
57465;SDS011;61805;44.776;20.472;2023-01-15T01:31:38;325.52;;;38.08;;
57465;SDS011;61805;44.776;20.472;2023-01-15T01:34:04;318.40;;;41.42;;
57465;SDS011;61805;44.776;20.472;2023-01-15T01:36:31;374.63;;;42.50;;
57465;SDS011;61805;44.776;20.472;2023-01-15T01:38:58;248.32;;;41.10;;
57465;SDS011;61805;44.776;20.472;2023-01-15T01:41:24;280.42;;;40.08;;
57465;SDS011;61805;44.776;20.472;2023-01-15T01:43:58;287.50;;;40.10;;
57465;SDS011;61805;44.776;20.472;2023-01-15T01:46:27;370.10;;;42.83;;
57465;SDS011;61805;44.776;20.472;2023-01-15T01:48:59;240.85;;;41.13;;
57465;SDS011;61805;44.776;20.472;2023-01-15T01:51:39;297.80;;;41.80;;
57465;SDS011;61805;44.776;20.472;2023-01-15T01:54:12;251.63;;;39.67;;
57465;SDS011;61805;44.776;20.472;2023-01-15T01:56:41;367.95;;;43.38;;
57465;SDS011;61805;44.776;20.472;2023-01-15T01:59:07;274.50;;;40.42;;
57465;SDS011;61805;44.776;20.472;2023-01-15T02:01:33;416.73;;;45.20;;
57465;SDS011;61805;44.776;20.472;2023-01-15T02:04:00;320.60;;;41.92;;
57465;SDS011;61805;44.776;20.472;2023-01-15T02:06:26;360.35;;;44.50;;
57465;SDS011;61805;44.776;20.472;2023-01-15T02:08:53;301.25;;;39.58;;
57465;SDS011;61805;44.776;20.472;2023-01-15T02:11:20;230.68;;;39.75;;
57465;SDS011;61805;44.776;20.472;2023-01-15T02:14:02;288.77;;;38.70;;
57465;SDS011;61805;44.776;20.472;2023-01-15T02:25:13;406.45;;;42.78;;
57465;SDS011;61805;44.776;20.472;2023-01-15T02:28:13;268.13;;;39.17;;
57465;SDS011;61805;44.776;20.472;2023-01-15T02:30:46;240.25;;;40.38;;
57465;SDS011;61805;44.776;20.472;2023-01-15T02:33:23;227.10;;;37.78;;
57465;SDS011;61805;44.776;20.472;2023-01-15T02:35:55;180.95;;;36.30;;
57465;SDS011;61805;44.776;20.472;2023-01-15T02:38:25;233.57;;;39.40;;
57465;SDS011;61805;44.776;20.472;2023-01-15T02:40:55;323.23;;;42.42;;
57465;SDS011;61805;44.776;20.472;2023-01-15T02:43:24;253.85;;;42.70;;
57465;SDS011;61805;44.776;20.472;2023-01-15T02:45:55;186.05;;;39.35;;
57465;SDS011;61805;44.776;20.472;2023-01-15T02:48:25;305.77;;;40.30;;
57465;SDS011;61805;44.776;20.472;2023-01-15T02:50:54;264.45;;;41.40;;
57465;SDS011;61805;44.776;20.472;2023-01-15T02:53:28;279.15;;;43.13;;
57465;SDS011;61805;44.776;20.472;2023-01-15T02:55:57;159.27;;;40.70;;
57465;SDS011;61805;44.776;20.472;2023-01-15T02:58:28;266.67;;;41.75;;
57465;SDS011;61805;44.776;20.472;2023-01-15T03:00:57;195.02;;;41.63;;
57465;SDS011;61805;44.776;20.472;2023-01-15T03:06:17;265.40;;;43.45;;
57465;SDS011;61805;44.776;20.472;2023-01-15T03:08:53;241.27;;;41.25;;
57465;SDS011;61805;44.776;20.472;2023-01-15T03:11:19;226.45;;;42.47;;
57465;SDS011;61805;44.776;20.472;2023-01-15T03:16:55;275.58;;;44.03;;
57465;SDS011;61805;44.776;20.472;2023-01-15T03:19:28;292.52;;;44.13;;
57465;SDS011;61805;44.776;20.472;2023-01-15T03:22:11;378.25;;;47.78;;
57465;SDS011;61805;44.776;20.472;2023-01-15T03:24:56;311.20;;;45.65;;
57465;SDS011;61805;44.776;20.472;2023-01-15T03:27:24;377.98;;;48.30;;
57465;SDS011;61805;44.776;20.472;2023-01-15T03:29:52;373.73;;;46.05;;
57465;SDS011;61805;44.776;20.472;2023-01-15T03:32:25;403.27;;;45.60;;
57465;SDS011;61805;44.776;20.472;2023-01-15T03:34:52;283.30;;;40.80;;
57465;SDS011;61805;44.776;20.472;2023-01-15T03:37:20;220.27;;;42.47;;
57465;SDS011;61805;44.776;20.472;2023-01-15T03:39:48;274.90;;;40.03;;
57465;SDS011;61805;44.776;20.472;2023-01-15T03:45:35;226.23;;;36.30;;
57465;SDS011;61805;44.776;20.472;2023-01-15T03:53:58;316.70;;;38.03;;
57465;SDS011;61805;44.776;20.472;2023-01-15T03:56:31;344.15;;;37.97;;
57465;SDS011;61805;44.776;20.472;2023-01-15T03:59:23;301.02;;;37.95;;
57465;SDS011;61805;44.776;20.472;2023-01-15T04:02:00;278.25;;;37.58;;
57465;SDS011;61805;44.776;20.472;2023-01-15T04:04:28;267.73;;;35.47;;
57465;SDS011;61805;44.776;20.472;2023-01-15T04:06:55;259.77;;;35.53;;
57465;SDS011;61805;44.776;20.472;2023-01-15T04:09:22;299.58;;;35.92;;
57465;SDS011;61805;44.776;20.472;2023-01-15T04:11:48;298.17;;;36.25;;
57465;SDS011;61805;44.776;20.472;2023-01-15T04:14:14;282.55;;;34.90;;
57465;SDS011;61805;44.776;20.472;2023-01-15T04:16:40;282.88;;;36.78;;
57465;SDS011;61805;44.776;20.472;2023-01-15T04:19:06;311.73;;;35.85;;
57465;SDS011;61805;44.776;20.472;2023-01-15T04:21:32;331.05;;;35.65;;
57465;SDS011;61805;44.776;20.472;2023-01-15T04:23:58;242.07;;;34.88;;
57465;SDS011;61805;44.776;20.472;2023-01-15T04:26:24;266.10;;;35.35;;
57465;SDS011;61805;44.776;20.472;2023-01-15T04:28:50;288.88;;;35.15;;
57465;SDS011;61805;44.776;20.472;2023-01-15T04:31:15;230.10;;;33.85;;
57465;SDS011;61805;44.776;20.472;2023-01-15T04:33:41;260.40;;;34.53;;
57465;SDS011;61805;44.776;20.472;2023-01-15T04:36:07;287.38;;;38.65;;
57465;SDS011;61805;44.776;20.472;2023-01-15T04:38:35;224.32;;;38.63;;
57465;SDS011;61805;44.776;20.472;2023-01-15T04:41:02;241.13;;;40.58;;
57465;SDS011;61805;44.776;20.472;2023-01-15T04:43:47;234.05;;;41.17;;
57465;SDS011;61805;44.776;20.472;2023-01-15T04:46:44;215.25;;;39.13;;
57465;SDS011;61805;44.776;20.472;2023-01-15T04:49:15;183.68;;;35.78;;
57465;SDS011;61805;44.776;20.472;2023-01-15T04:51:42;179.73;;;35.40;;
57465;SDS011;61805;44.776;20.472;2023-01-15T04:54:09;204.32;;;36.95;;
57465;SDS011;61805;44.776;20.472;2023-01-15T04:56:38;148.53;;;36.43;;
57465;SDS011;61805;44.776;20.472;2023-01-15T04:59:06;182.63;;;38.05;;
57465;SDS011;61805;44.776;20.472;2023-01-15T05:01:32;204.85;;;37.40;;
57465;SDS011;61805;44.776;20.472;2023-01-15T05:03:58;182.68;;;35.95;;
57465;SDS011;61805;44.776;20.472;2023-01-15T05:06:25;197.70;;;35.33;;
57465;SDS011;61805;44.776;20.472;2023-01-15T05:08:52;189.98;;;33.42;;
57465;SDS011;61805;44.776;20.472;2023-01-15T05:11:17;236.27;;;38.25;;
57465;SDS011;61805;44.776;20.472;2023-01-15T05:13:43;290.75;;;40.95;;
57465;SDS011;61805;44.776;20.472;2023-01-15T05:16:13;236.75;;;36.28;;
57465;SDS011;61805;44.776;20.472;2023-01-15T05:18:43;225.20;;;37.30;;
57465;SDS011;61805;44.776;20.472;2023-01-15T05:21:17;171.27;;;30.70;;
57465;SDS011;61805;44.776;20.472;2023-01-15T05:23:47;200.52;;;30.65;;
57465;SDS011;61805;44.776;20.472;2023-01-15T05:26:14;183.20;;;31.65;;
57465;SDS011;61805;44.776;20.472;2023-01-15T05:28:40;139.82;;;27.65;;
57465;SDS011;61805;44.776;20.472;2023-01-15T05:31:16;181.00;;;29.38;;
57465;SDS011;61805;44.776;20.472;2023-01-15T05:33:43;135.82;;;27.95;;
57465;SDS011;61805;44.776;20.472;2023-01-15T05:36:12;142.48;;;25.48;;
57465;SDS011;61805;44.776;20.472;2023-01-15T05:38:39;126.47;;;25.92;;
57465;SDS011;61805;44.776;20.472;2023-01-15T05:41:06;90.00;;;24.60;;
57465;SDS011;61805;44.776;20.472;2023-01-15T05:43:53;123.60;;;25.80;;
57465;SDS011;61805;44.776;20.472;2023-01-15T05:46:20;116.30;;;27.88;;
57465;SDS011;61805;44.776;20.472;2023-01-15T05:48:46;170.38;;;31.60;;
57465;SDS011;61805;44.776;20.472;2023-01-15T05:51:12;151.48;;;30.88;;
57465;SDS011;61805;44.776;20.472;2023-01-15T05:53:38;205.02;;;33.08;;
57465;SDS011;61805;44.776;20.472;2023-01-15T05:56:04;172.50;;;31.40;;
57465;SDS011;61805;44.776;20.472;2023-01-15T05:58:31;116.80;;;27.73;;
57465;SDS011;61805;44.776;20.472;2023-01-15T06:00:57;120.60;;;31.00;;
57465;SDS011;61805;44.776;20.472;2023-01-15T06:03:24;93.07;;;29.20;;
57465;SDS011;61805;44.776;20.472;2023-01-15T06:05:54;87.30;;;28.00;;
57465;SDS011;61805;44.776;20.472;2023-01-15T06:08:21;96.88;;;29.38;;
57465;SDS011;61805;44.776;20.472;2023-01-15T06:10:48;82.43;;;28.38;;
57465;SDS011;61805;44.776;20.472;2023-01-15T06:13:14;84.70;;;28.73;;
57465;SDS011;61805;44.776;20.472;2023-01-15T06:15:41;101.90;;;29.85;;
57465;SDS011;61805;44.776;20.472;2023-01-15T06:18:07;103.82;;;32.80;;
57465;SDS011;61805;44.776;20.472;2023-01-15T06:20:40;78.45;;;30.60;;
57465;SDS011;61805;44.776;20.472;2023-01-15T06:23:07;86.90;;;29.10;;
57465;SDS011;61805;44.776;20.472;2023-01-15T06:25:33;183.50;;;49.83;;
57465;SDS011;61805;44.776;20.472;2023-01-15T06:28:01;84.60;;;32.65;;
57465;SDS011;61805;44.776;20.472;2023-01-15T06:30:31;124.13;;;36.55;;
57465;SDS011;61805;44.776;20.472;2023-01-15T06:32:58;142.25;;;52.90;;
57465;SDS011;61805;44.776;20.472;2023-01-15T06:35:24;115.63;;;38.65;;
57465;SDS011;61805;44.776;20.472;2023-01-15T06:37:51;118.03;;;32.08;;
57465;SDS011;61805;44.776;20.472;2023-01-15T06:40:17;128.60;;;36.47;;
57465;SDS011;61805;44.776;20.472;2023-01-15T06:42:43;131.43;;;43.35;;
57465;SDS011;61805;44.776;20.472;2023-01-15T06:45:31;122.55;;;38.97;;
57465;SDS011;61805;44.776;20.472;2023-01-15T06:48:20;104.55;;;34.50;;
57465;SDS011;61805;44.776;20.472;2023-01-15T06:50:46;116.45;;;35.33;;
57465;SDS011;61805;44.776;20.472;2023-01-15T06:53:12;129.05;;;39.17;;
57465;SDS011;61805;44.776;20.472;2023-01-15T06:55:38;111.90;;;45.13;;
57465;SDS011;61805;44.776;20.472;2023-01-15T06:58:04;88.65;;;42.65;;
57465;SDS011;61805;44.776;20.472;2023-01-15T07:00:30;103.22;;;47.72;;
57465;SDS011;61805;44.776;20.472;2023-01-15T07:02:59;98.15;;;48.25;;
57465;SDS011;61805;44.776;20.472;2023-01-15T07:07:52;104.15;;;48.65;;
57465;SDS011;61805;44.776;20.472;2023-01-15T07:10:18;96.55;;;49.15;;
57465;SDS011;61805;44.776;20.472;2023-01-15T07:12:44;109.32;;;53.10;;
57465;SDS011;61805;44.776;20.472;2023-01-15T07:15:10;85.88;;;45.13;;
57465;SDS011;61805;44.776;20.472;2023-01-15T07:17:36;78.90;;;42.17;;
57465;SDS011;61805;44.776;20.472;2023-01-15T07:20:02;70.95;;;36.95;;
57465;SDS011;61805;44.776;20.472;2023-01-15T07:22:29;67.15;;;38.08;;
57465;SDS011;61805;44.776;20.472;2023-01-15T07:24:55;65.75;;;36.22;;
57465;SDS011;61805;44.776;20.472;2023-01-15T07:27:21;64.57;;;35.67;;
57465;SDS011;61805;44.776;20.472;2023-01-15T07:29:47;63.25;;;35.80;;
57465;SDS011;61805;44.776;20.472;2023-01-15T07:32:16;72.70;;;35.88;;
57465;SDS011;61805;44.776;20.472;2023-01-15T07:34:43;70.18;;;35.60;;
57465;SDS011;61805;44.776;20.472;2023-01-15T07:37:09;65.35;;;35.83;;
57465;SDS011;61805;44.776;20.472;2023-01-15T07:39:35;61.47;;;34.58;;
57465;SDS011;61805;44.776;20.472;2023-01-15T07:42:01;62.85;;;35.15;;
57465;SDS011;61805;44.776;20.472;2023-01-15T07:44:45;67.40;;;33.92;;
57465;SDS011;61805;44.776;20.472;2023-01-15T07:47:30;58.20;;;33.45;;
57465;SDS011;61805;44.776;20.472;2023-01-15T07:50:18;63.35;;;34.72;;
57465;SDS011;61805;44.776;20.472;2023-01-15T07:52:45;62.83;;;34.28;;
57465;SDS011;61805;44.776;20.472;2023-01-15T07:55:11;63.92;;;36.63;;
57465;SDS011;61805;44.776;20.472;2023-01-15T07:57:38;61.92;;;35.40;;
57465;SDS011;61805;44.776;20.472;2023-01-15T08:00:06;66.90;;;36.17;;
57465;SDS011;61805;44.776;20.472;2023-01-15T08:02:32;67.07;;;37.03;;
57465;SDS011;61805;44.776;20.472;2023-01-15T08:04:58;66.45;;;36.88;;
57465;SDS011;61805;44.776;20.472;2023-01-15T08:07:25;64.55;;;36.22;;
57465;SDS011;61805;44.776;20.472;2023-01-15T08:09:51;71.30;;;39.30;;
57465;SDS011;61805;44.776;20.472;2023-01-15T08:12:17;63.53;;;37.63;;
57465;SDS011;61805;44.776;20.472;2023-01-15T08:15:02;78.95;;;43.10;;
57465;SDS011;61805;44.776;20.472;2023-01-15T08:17:38;85.82;;;43.88;;
57465;SDS011;61805;44.776;20.472;2023-01-15T08:20:06;93.68;;;48.17;;
57465;SDS011;61805;44.776;20.472;2023-01-15T08:22:32;97.07;;;48.42;;
57465;SDS011;61805;44.776;20.472;2023-01-15T08:24:58;88.25;;;48.65;;
57465;SDS011;61805;44.776;20.472;2023-01-15T08:27:25;73.85;;;40.72;;
57465;SDS011;61805;44.776;20.472;2023-01-15T08:29:53;70.20;;;39.60;;
57465;SDS011;61805;44.776;20.472;2023-01-15T08:32:19;76.72;;;42.83;;
57465;SDS011;61805;44.776;20.472;2023-01-15T08:34:45;70.47;;;40.72;;
57465;SDS011;61805;44.776;20.472;2023-01-15T08:37:11;77.65;;;44.00;;
57465;SDS011;61805;44.776;20.472;2023-01-15T08:42:59;74.00;;;41.55;;
57465;SDS011;61805;44.776;20.472;2023-01-15T08:48:14;82.57;;;46.22;;
57465;SDS011;61805;44.776;20.472;2023-01-15T08:50:40;66.43;;;41.00;;
57465;SDS011;61805;44.776;20.472;2023-01-15T08:53:06;64.53;;;38.97;;
57465;SDS011;61805;44.776;20.472;2023-01-15T08:55:32;71.60;;;41.08;;
57465;SDS011;61805;44.776;20.472;2023-01-15T08:57:58;71.88;;;40.42;;
57465;SDS011;61805;44.776;20.472;2023-01-15T09:00:25;80.03;;;52.53;;
57465;SDS011;61805;44.776;20.472;2023-01-15T09:02:50;113.95;;;77.22;;
57465;SDS011;61805;44.776;20.472;2023-01-15T09:05:16;182.15;;;116.30;;
57465;SDS011;61805;44.776;20.472;2023-01-15T09:07:43;88.05;;;56.45;;
57465;SDS011;61805;44.776;20.472;2023-01-15T09:10:09;97.97;;;61.67;;
57465;SDS011;61805;44.776;20.472;2023-01-15T09:12:35;60.15;;;36.30;;
57465;SDS011;61805;44.776;20.472;2023-01-15T09:15:01;48.78;;;30.55;;
57465;SDS011;61805;44.776;20.472;2023-01-15T09:17:27;43.58;;;27.02;;
57465;SDS011;61805;44.776;20.472;2023-01-15T09:19:53;44.17;;;26.13;;
57465;SDS011;61805;44.776;20.472;2023-01-15T09:22:19;46.85;;;29.73;;
57465;SDS011;61805;44.776;20.472;2023-01-15T09:24:45;42.80;;;25.98;;
57465;SDS011;61805;44.776;20.472;2023-01-15T09:27:11;45.35;;;28.83;;
57465;SDS011;61805;44.776;20.472;2023-01-15T09:29:37;45.67;;;27.67;;
57465;SDS011;61805;44.776;20.472;2023-01-15T09:32:04;46.70;;;29.60;;
57465;SDS011;61805;44.776;20.472;2023-01-15T09:34:30;40.40;;;26.20;;
57465;SDS011;61805;44.776;20.472;2023-01-15T09:36:55;42.63;;;26.63;;
57465;SDS011;61805;44.776;20.472;2023-01-15T09:39:21;40.80;;;26.55;;
57465;SDS011;61805;44.776;20.472;2023-01-15T09:47:47;43.45;;;26.55;;
57465;SDS011;61805;44.776;20.472;2023-01-15T09:50:34;43.45;;;25.77;;
57465;SDS011;61805;44.776;20.472;2023-01-15T09:56:23;36.67;;;23.23;;
57465;SDS011;61805;44.776;20.472;2023-01-15T09:58:52;45.40;;;25.70;;
57465;SDS011;61805;44.776;20.472;2023-01-15T10:01:28;41.53;;;25.42;;
57465;SDS011;61805;44.776;20.472;2023-01-15T10:06:50;36.85;;;24.27;;
57465;SDS011;61805;44.776;20.472;2023-01-15T10:09:36;42.20;;;26.17;;
57465;SDS011;61805;44.776;20.472;2023-01-15T10:12:06;43.15;;;25.55;;
57465;SDS011;61805;44.776;20.472;2023-01-15T10:17:34;40.63;;;26.65;;
57465;SDS011;61805;44.776;20.472;2023-01-15T10:25:41;41.42;;;25.25;;
57465;SDS011;61805;44.776;20.472;2023-01-15T10:28:18;36.85;;;24.08;;
57465;SDS011;61805;44.776;20.472;2023-01-15T10:30:50;36.92;;;24.15;;
57465;SDS011;61805;44.776;20.472;2023-01-15T10:33:39;37.88;;;25.17;;
57465;SDS011;61805;44.776;20.472;2023-01-15T10:36:26;33.47;;;22.13;;
57465;SDS011;61805;44.776;20.472;2023-01-15T10:41:44;36.92;;;23.63;;
57465;SDS011;61805;44.776;20.472;2023-01-15T10:44:27;40.88;;;24.73;;
57465;SDS011;61805;44.776;20.472;2023-01-15T10:47:21;36.38;;;22.67;;
57465;SDS011;61805;44.776;20.472;2023-01-15T10:50:02;39.80;;;24.48;;
57465;SDS011;61805;44.776;20.472;2023-01-15T10:52:40;34.58;;;21.90;;
57465;SDS011;61805;44.776;20.472;2023-01-15T10:57:54;39.55;;;23.50;;
57465;SDS011;61805;44.776;20.472;2023-01-15T11:00:30;22.45;;;15.57;;
57465;SDS011;61805;44.776;20.472;2023-01-15T11:05:26;32.80;;;21.15;;
57465;SDS011;61805;44.776;20.472;2023-01-15T11:07:54;34.78;;;22.13;;
57465;SDS011;61805;44.776;20.472;2023-01-15T11:10:21;35.30;;;21.58;;
57465;SDS011;61805;44.776;20.472;2023-01-15T11:15:56;19.55;;;12.52;;
57465;SDS011;61805;44.776;20.472;2023-01-15T11:18:41;21.92;;;14.27;;
57465;SDS011;61805;44.776;20.472;2023-01-15T11:21:27;21.33;;;14.80;;
57465;SDS011;61805;44.776;20.472;2023-01-15T11:23:55;23.08;;;15.55;;
57465;SDS011;61805;44.776;20.472;2023-01-15T11:26:26;21.60;;;14.13;;
57465;SDS011;61805;44.776;20.472;2023-01-15T11:28:57;28.00;;;17.50;;
57465;SDS011;61805;44.776;20.472;2023-01-15T11:31:36;28.17;;;17.53;;
57465;SDS011;61805;44.776;20.472;2023-01-15T11:34:04;24.13;;;15.45;;
57465;SDS011;61805;44.776;20.472;2023-01-15T11:36:32;22.27;;;14.73;;
57465;SDS011;61805;44.776;20.472;2023-01-15T11:38:58;23.42;;;15.10;;
57465;SDS011;61805;44.776;20.472;2023-01-15T11:44:16;19.73;;;12.43;;
57465;SDS011;61805;44.776;20.472;2023-01-15T11:47:02;21.85;;;13.40;;
57465;SDS011;61805;44.776;20.472;2023-01-15T11:49:53;19.33;;;13.15;;
57465;SDS011;61805;44.776;20.472;2023-01-15T11:52:40;21.10;;;14.70;;
57465;SDS011;61805;44.776;20.472;2023-01-15T11:55:11;29.90;;;18.25;;
57465;SDS011;61805;44.776;20.472;2023-01-15T11:57:39;24.67;;;15.60;;
57465;SDS011;61805;44.776;20.472;2023-01-15T12:00:06;24.33;;;15.23;;
57465;SDS011;61805;44.776;20.472;2023-01-15T12:02:39;25.35;;;14.57;;
57465;SDS011;61805;44.776;20.472;2023-01-15T12:05:20;28.35;;;16.75;;
57465;SDS011;61805;44.776;20.472;2023-01-15T12:07:49;23.30;;;16.20;;
57465;SDS011;61805;44.776;20.472;2023-01-15T12:10:23;32.90;;;17.20;;
57465;SDS011;61805;44.776;20.472;2023-01-15T12:13:20;25.98;;;16.23;;
57465;SDS011;61805;44.776;20.472;2023-01-15T12:16:02;24.92;;;16.58;;
57465;SDS011;61805;44.776;20.472;2023-01-15T12:29:22;29.08;;;15.88;;
57465;SDS011;61805;44.776;20.472;2023-01-15T12:31:59;23.35;;;15.77;;
57465;SDS011;61805;44.776;20.472;2023-01-15T12:34:38;23.25;;;15.07;;
57465;SDS011;61805;44.776;20.472;2023-01-15T12:37:08;25.38;;;15.52;;
57465;SDS011;61805;44.776;20.472;2023-01-15T12:39:45;27.65;;;15.98;;
57465;SDS011;61805;44.776;20.472;2023-01-15T12:42:23;34.25;;;20.25;;
57465;SDS011;61805;44.776;20.472;2023-01-15T12:45:26;44.80;;;27.10;;
57465;SDS011;61805;44.776;20.472;2023-01-15T12:47:57;37.97;;;21.50;;
57465;SDS011;61805;44.776;20.472;2023-01-15T12:53:19;19.38;;;13.40;;
57465;SDS011;61805;44.776;20.472;2023-01-15T12:58:51;22.77;;;15.23;;
57465;SDS011;61805;44.776;20.472;2023-01-15T13:06:49;18.27;;;12.35;;
57465;SDS011;61805;44.776;20.472;2023-01-15T13:11:59;19.98;;;13.50;;
57465;SDS011;61805;44.776;20.472;2023-01-15T13:14:25;20.27;;;13.75;;
57465;SDS011;61805;44.776;20.472;2023-01-15T13:17:04;21.58;;;13.77;;
57465;SDS011;61805;44.776;20.472;2023-01-15T13:20:30;15.52;;;11.23;;
57465;SDS011;61805;44.776;20.472;2023-01-15T13:27:52;19.52;;;12.93;;
57465;SDS011;61805;44.776;20.472;2023-01-15T13:30:55;19.33;;;12.00;;
57465;SDS011;61805;44.776;20.472;2023-01-15T13:33:47;24.73;;;15.60;;
57465;SDS011;61805;44.776;20.472;2023-01-15T13:36:51;21.27;;;13.68;;
57465;SDS011;61805;44.776;20.472;2023-01-15T13:39:18;19.23;;;11.35;;
57465;SDS011;61805;44.776;20.472;2023-01-15T13:41:51;17.30;;;11.45;;
57465;SDS011;61805;44.776;20.472;2023-01-15T13:44:44;23.90;;;12.88;;
57465;SDS011;61805;44.776;20.472;2023-01-15T13:47:18;16.77;;;11.02;;
57465;SDS011;61805;44.776;20.472;2023-01-15T13:49:50;16.50;;;11.13;;
57465;SDS011;61805;44.776;20.472;2023-01-15T13:52:40;19.80;;;12.13;;
57465;SDS011;61805;44.776;20.472;2023-01-15T13:55:09;17.02;;;11.30;;
57465;SDS011;61805;44.776;20.472;2023-01-15T13:57:43;20.58;;;11.75;;
57465;SDS011;61805;44.776;20.472;2023-01-15T14:00:26;17.27;;;10.80;;
57465;SDS011;61805;44.776;20.472;2023-01-15T14:02:58;18.70;;;10.70;;
57465;SDS011;61805;44.776;20.472;2023-01-15T14:05:28;16.25;;;10.23;;
57465;SDS011;61805;44.776;20.472;2023-01-15T14:07:56;17.33;;;10.75;;
57465;SDS011;61805;44.776;20.472;2023-01-15T14:10:24;18.15;;;11.20;;
57465;SDS011;61805;44.776;20.472;2023-01-15T14:21:29;14.63;;;10.40;;
57465;SDS011;61805;44.776;20.472;2023-01-15T14:24:35;19.80;;;10.85;;
57465;SDS011;61805;44.776;20.472;2023-01-15T14:36:17;15.95;;;10.88;;
57465;SDS011;61805;44.776;20.472;2023-01-15T14:38:48;17.52;;;10.40;;
57465;SDS011;61805;44.776;20.472;2023-01-15T14:41:22;18.15;;;11.50;;
57465;SDS011;61805;44.776;20.472;2023-01-15T14:43:51;22.05;;;13.00;;
57465;SDS011;61805;44.776;20.472;2023-01-15T14:46:23;25.13;;;15.80;;
57465;SDS011;61805;44.776;20.472;2023-01-15T14:48:53;26.50;;;16.33;;
57465;SDS011;61805;44.776;20.472;2023-01-15T14:51:29;24.35;;;15.90;;
57465;SDS011;61805;44.776;20.472;2023-01-15T14:54:01;23.90;;;13.10;;
57465;SDS011;61805;44.776;20.472;2023-01-15T14:56:33;21.33;;;14.25;;
57465;SDS011;61805;44.776;20.472;2023-01-15T14:59:08;27.23;;;16.67;;
57465;SDS011;61805;44.776;20.472;2023-01-15T15:06:48;35.20;;;20.83;;
57465;SDS011;61805;44.776;20.472;2023-01-15T15:09:21;35.15;;;21.77;;
57465;SDS011;61805;44.776;20.472;2023-01-15T15:11:53;41.70;;;25.08;;
57465;SDS011;61805;44.776;20.472;2023-01-15T15:14:41;39.08;;;24.58;;
57465;SDS011;61805;44.776;20.472;2023-01-15T15:17:28;39.72;;;22.90;;
57465;SDS011;61805;44.776;20.472;2023-01-15T15:22:46;52.80;;;32.20;;
57465;SDS011;61805;44.776;20.472;2023-01-15T15:25:20;95.00;;;54.38;;
57465;SDS011;61805;44.776;20.472;2023-01-15T15:27:47;100.70;;;58.35;;
57465;SDS011;61805;44.776;20.472;2023-01-15T15:30:13;101.70;;;55.78;;
57465;SDS011;61805;44.776;20.472;2023-01-15T15:32:42;81.30;;;46.28;;
57465;SDS011;61805;44.776;20.472;2023-01-15T15:38:05;54.15;;;35.22;;
57465;SDS011;61805;44.776;20.472;2023-01-15T15:40:32;56.97;;;34.60;;
57465;SDS011;61805;44.776;20.472;2023-01-15T15:45:52;58.72;;;31.58;;
57465;SDS011;61805;44.776;20.472;2023-01-15T15:48:37;49.13;;;28.60;;
57465;SDS011;61805;44.776;20.472;2023-01-15T15:57:07;46.72;;;29.58;;
57465;SDS011;61805;44.776;20.472;2023-01-15T16:05:14;47.78;;;29.83;;
57465;SDS011;61805;44.776;20.472;2023-01-15T16:08:15;72.78;;;40.60;;
57465;SDS011;61805;44.776;20.472;2023-01-15T16:10:46;70.65;;;36.83;;
57465;SDS011;61805;44.776;20.472;2023-01-15T16:13:37;77.60;;;45.58;;
57465;SDS011;61805;44.776;20.472;2023-01-15T16:16:15;75.20;;;39.28;;
57465;SDS011;61805;44.776;20.472;2023-01-15T16:18:44;63.13;;;36.78;;
57465;SDS011;61805;44.776;20.472;2023-01-15T16:21:22;71.53;;;38.17;;
57465;SDS011;61805;44.776;20.472;2023-01-15T16:23:59;68.10;;;37.78;;
57465;SDS011;61805;44.776;20.472;2023-01-15T16:28:55;72.20;;;40.88;;
57465;SDS011;61805;44.776;20.472;2023-01-15T16:31:23;93.78;;;49.80;;
57465;SDS011;61805;44.776;20.472;2023-01-15T16:33:56;93.53;;;48.83;;
57465;SDS011;61805;44.776;20.472;2023-01-15T16:36:23;88.65;;;46.97;;
57465;SDS011;61805;44.776;20.472;2023-01-15T16:38:51;86.97;;;45.92;;
57465;SDS011;61805;44.776;20.472;2023-01-15T16:41:18;79.07;;;43.55;;
57465;SDS011;61805;44.776;20.472;2023-01-15T16:43:58;99.38;;;50.28;;
57465;SDS011;61805;44.776;20.472;2023-01-15T16:46:30;92.85;;;50.58;;
57465;SDS011;61805;44.776;20.472;2023-01-15T16:52:01;111.93;;;52.38;;